sensor_id;sensor_type;location;lat;lon;timestamp;P1;durP1;ratioP1;P2;durP2;ratioP2
32633;SDS011;19043;51.012;5.648;2023-03-01T00:00:53;13.50;;;7.50;;
32633;SDS011;19043;51.012;5.648;2023-03-01T00:03:19;10.90;;;7.32;;
32633;SDS011;19043;51.012;5.648;2023-03-01T00:05:44;12.82;;;7.40;;
32633;SDS011;19043;51.012;5.648;2023-03-01T00:08:10;14.05;;;6.80;;
32633;SDS011;19043;51.012;5.648;2023-03-01T00:10:35;11.25;;;7.68;;
32633;SDS011;19043;51.012;5.648;2023-03-01T00:13:00;14.50;;;8.00;;
32633;SDS011;19043;51.012;5.648;2023-03-01T00:15:26;10.38;;;7.53;;
32633;SDS011;19043;51.012;5.648;2023-03-01T00:17:51;13.07;;;7.50;;
32633;SDS011;19043;51.012;5.648;2023-03-01T00:20:16;10.73;;;7.13;;
32633;SDS011;19043;51.012;5.648;2023-03-01T00:22:41;13.30;;;8.35;;
32633;SDS011;19043;51.012;5.648;2023-03-01T00:25:07;13.65;;;8.02;;
32633;SDS011;19043;51.012;5.648;2023-03-01T00:27:32;14.43;;;8.25;;
32633;SDS011;19043;51.012;5.648;2023-03-01T00:29:57;10.88;;;8.40;;
32633;SDS011;19043;51.012;5.648;2023-03-01T00:32:23;15.70;;;8.20;;
32633;SDS011;19043;51.012;5.648;2023-03-01T00:34:48;15.77;;;8.57;;
32633;SDS011;19043;51.012;5.648;2023-03-01T00:37:22;10.63;;;8.23;;
32633;SDS011;19043;51.012;5.648;2023-03-01T00:39:48;13.63;;;8.40;;
32633;SDS011;19043;51.012;5.648;2023-03-01T00:42:13;10.85;;;7.45;;
32633;SDS011;19043;51.012;5.648;2023-03-01T00:44:38;12.07;;;8.02;;
32633;SDS011;19043;51.012;5.648;2023-03-01T00:47:03;11.85;;;8.85;;
32633;SDS011;19043;51.012;5.648;2023-03-01T00:49:29;11.85;;;8.05;;
32633;SDS011;19043;51.012;5.648;2023-03-01T00:51:54;12.45;;;8.63;;
32633;SDS011;19043;51.012;5.648;2023-03-01T00:54:19;9.90;;;7.88;;
32633;SDS011;19043;51.012;5.648;2023-03-01T00:56:44;11.73;;;7.90;;
32633;SDS011;19043;51.012;5.648;2023-03-01T00:59:10;12.77;;;7.50;;
32633;SDS011;19043;51.012;5.648;2023-03-01T01:01:35;11.57;;;7.97;;
32633;SDS011;19043;51.012;5.648;2023-03-01T01:04:02;13.68;;;8.68;;
32633;SDS011;19043;51.012;5.648;2023-03-01T01:06:28;11.63;;;8.35;;
32633;SDS011;19043;51.012;5.648;2023-03-01T01:08:54;13.93;;;8.73;;
32633;SDS011;19043;51.012;5.648;2023-03-01T01:11:21;12.30;;;8.70;;
32633;SDS011;19043;51.012;5.648;2023-03-01T01:13:46;15.77;;;9.35;;
32633;SDS011;19043;51.012;5.648;2023-03-01T01:16:12;11.18;;;8.40;;
32633;SDS011;19043;51.012;5.648;2023-03-01T01:18:38;13.60;;;8.18;;
32633;SDS011;19043;51.012;5.648;2023-03-01T01:21:05;11.95;;;8.32;;
32633;SDS011;19043;51.012;5.648;2023-03-01T01:23:30;14.82;;;9.13;;
32633;SDS011;19043;51.012;5.648;2023-03-01T01:25:56;10.32;;;7.70;;
32633;SDS011;19043;51.012;5.648;2023-03-01T01:28:21;11.65;;;8.25;;
32633;SDS011;19043;51.012;5.648;2023-03-01T01:30:46;10.90;;;8.32;;
32633;SDS011;19043;51.012;5.648;2023-03-01T01:33:11;12.48;;;8.63;;
32633;SDS011;19043;51.012;5.648;2023-03-01T01:35:36;11.23;;;8.38;;
32633;SDS011;19043;51.012;5.648;2023-03-01T01:38:02;16.58;;;8.93;;
32633;SDS011;19043;51.012;5.648;2023-03-01T01:40:27;15.73;;;8.63;;
32633;SDS011;19043;51.012;5.648;2023-03-01T01:42:52;15.35;;;10.20;;
32633;SDS011;19043;51.012;5.648;2023-03-01T01:45:36;13.70;;;8.80;;
32633;SDS011;19043;51.012;5.648;2023-03-01T01:48:03;12.35;;;8.52;;
32633;SDS011;19043;51.012;5.648;2023-03-01T01:50:28;12.95;;;9.63;;
32633;SDS011;19043;51.012;5.648;2023-03-01T01:53:02;13.07;;;8.93;;
32633;SDS011;19043;51.012;5.648;2023-03-01T01:55:28;11.40;;;8.35;;
32633;SDS011;19043;51.012;5.648;2023-03-01T01:57:54;13.55;;;9.25;;
32633;SDS011;19043;51.012;5.648;2023-03-01T02:00:22;13.57;;;8.77;;
32633;SDS011;19043;51.012;5.648;2023-03-01T02:02:48;13.30;;;9.77;;
32633;SDS011;19043;51.012;5.648;2023-03-01T02:05:20;14.05;;;9.30;;
32633;SDS011;19043;51.012;5.648;2023-03-01T02:07:47;13.35;;;9.43;;
32633;SDS011;19043;51.012;5.648;2023-03-01T02:10:13;13.73;;;9.27;;
32633;SDS011;19043;51.012;5.648;2023-03-01T02:12:39;13.60;;;9.25;;
32633;SDS011;19043;51.012;5.648;2023-03-01T02:15:05;12.75;;;9.18;;
32633;SDS011;19043;51.012;5.648;2023-03-01T02:17:30;14.32;;;9.57;;
32633;SDS011;19043;51.012;5.648;2023-03-01T02:22:39;13.03;;;9.70;;
32633;SDS011;19043;51.012;5.648;2023-03-01T02:30:18;17.88;;;10.50;;
32633;SDS011;19043;51.012;5.648;2023-03-01T02:32:43;13.32;;;10.05;;
32633;SDS011;19043;51.012;5.648;2023-03-01T02:35:10;14.50;;;11.23;;
32633;SDS011;19043;51.012;5.648;2023-03-01T02:37:36;13.90;;;10.50;;
32633;SDS011;19043;51.012;5.648;2023-03-01T02:40:04;18.15;;;11.20;;
32633;SDS011;19043;51.012;5.648;2023-03-01T02:42:31;13.98;;;9.95;;
32633;SDS011;19043;51.012;5.648;2023-03-01T02:44:58;17.35;;;10.68;;
32633;SDS011;19043;51.012;5.648;2023-03-01T02:47:24;16.95;;;10.93;;
32633;SDS011;19043;51.012;5.648;2023-03-01T02:49:49;14.88;;;11.00;;
32633;SDS011;19043;51.012;5.648;2023-03-01T02:57:23;16.98;;;11.20;;
32633;SDS011;19043;51.012;5.648;2023-03-01T02:59:49;15.00;;;11.43;;
32633;SDS011;19043;51.012;5.648;2023-03-01T03:02:19;16.00;;;11.50;;
32633;SDS011;19043;51.012;5.648;2023-03-01T03:04:45;16.60;;;10.95;;
32633;SDS011;19043;51.012;5.648;2023-03-01T03:07:11;16.63;;;10.93;;
32633;SDS011;19043;51.012;5.648;2023-03-01T03:09:36;16.35;;;10.68;;
32633;SDS011;19043;51.012;5.648;2023-03-01T03:12:01;14.15;;;10.75;;
32633;SDS011;19043;51.012;5.648;2023-03-01T03:14:26;16.13;;;10.63;;
32633;SDS011;19043;51.012;5.648;2023-03-01T03:16:52;13.75;;;10.32;;
32633;SDS011;19043;51.012;5.648;2023-03-01T03:19:18;15.57;;;11.07;;
32633;SDS011;19043;51.012;5.648;2023-03-01T03:21:43;18.15;;;11.27;;
32633;SDS011;19043;51.012;5.648;2023-03-01T03:24:08;19.60;;;11.80;;
32633;SDS011;19043;51.012;5.648;2023-03-01T03:26:34;15.40;;;11.25;;
32633;SDS011;19043;51.012;5.648;2023-03-01T03:28:59;18.13;;;11.32;;
32633;SDS011;19043;51.012;5.648;2023-03-01T03:31:24;14.13;;;10.65;;
32633;SDS011;19043;51.012;5.648;2023-03-01T03:33:50;14.05;;;11.35;;
32633;SDS011;19043;51.012;5.648;2023-03-01T03:36:20;22.20;;;12.20;;
32633;SDS011;19043;51.012;5.648;2023-03-01T03:38:46;17.48;;;12.52;;
32633;SDS011;19043;51.012;5.648;2023-03-01T03:41:11;17.67;;;11.88;;
32633;SDS011;19043;51.012;5.648;2023-03-01T03:43:37;14.70;;;11.57;;
32633;SDS011;19043;51.012;5.648;2023-03-01T03:46:03;18.27;;;12.13;;
32633;SDS011;19043;51.012;5.648;2023-03-01T03:48:34;19.20;;;12.77;;
32633;SDS011;19043;51.012;5.648;2023-03-01T03:51:00;17.33;;;12.63;;
32633;SDS011;19043;51.012;5.648;2023-03-01T03:53:25;19.25;;;12.30;;
32633;SDS011;19043;51.012;5.648;2023-03-01T03:55:51;21.52;;;12.70;;
32633;SDS011;19043;51.012;5.648;2023-03-01T03:58:17;16.10;;;12.23;;
32633;SDS011;19043;51.012;5.648;2023-03-01T04:00:44;17.20;;;11.98;;
32633;SDS011;19043;51.012;5.648;2023-03-01T04:03:10;19.42;;;13.18;;
32633;SDS011;19043;51.012;5.648;2023-03-01T04:05:36;18.55;;;12.32;;
32633;SDS011;19043;51.012;5.648;2023-03-01T04:08:02;14.50;;;12.00;;
32633;SDS011;19043;51.012;5.648;2023-03-01T04:10:27;16.27;;;12.65;;
32633;SDS011;19043;51.012;5.648;2023-03-01T04:12:53;23.52;;;13.90;;
32633;SDS011;19043;51.012;5.648;2023-03-01T04:15:21;18.42;;;12.43;;
32633;SDS011;19043;51.012;5.648;2023-03-01T04:17:49;16.80;;;12.60;;
32633;SDS011;19043;51.012;5.648;2023-03-01T04:20:16;15.90;;;12.43;;
32633;SDS011;19043;51.012;5.648;2023-03-01T04:22:56;21.95;;;15.55;;
32633;SDS011;19043;51.012;5.648;2023-03-01T04:25:22;19.90;;;14.48;;
32633;SDS011;19043;51.012;5.648;2023-03-01T04:27:47;19.50;;;15.27;;
32633;SDS011;19043;51.012;5.648;2023-03-01T04:30:13;19.88;;;13.07;;
32633;SDS011;19043;51.012;5.648;2023-03-01T04:32:38;18.58;;;13.25;;
32633;SDS011;19043;51.012;5.648;2023-03-01T04:35:03;17.88;;;13.82;;
32633;SDS011;19043;51.012;5.648;2023-03-01T04:37:29;19.33;;;13.35;;
32633;SDS011;19043;51.012;5.648;2023-03-01T04:39:54;19.80;;;14.85;;
32633;SDS011;19043;51.012;5.648;2023-03-01T04:42:20;20.73;;;15.68;;
32633;SDS011;19043;51.012;5.648;2023-03-01T04:44:45;26.52;;;18.30;;
32633;SDS011;19043;51.012;5.648;2023-03-01T04:47:10;33.42;;;21.00;;
32633;SDS011;19043;51.012;5.648;2023-03-01T04:49:35;31.52;;;20.83;;
32633;SDS011;19043;51.012;5.648;2023-03-01T04:52:01;36.40;;;24.58;;
32633;SDS011;19043;51.012;5.648;2023-03-01T04:54:29;32.40;;;22.58;;
32633;SDS011;19043;51.012;5.648;2023-03-01T04:56:55;29.88;;;21.27;;
32633;SDS011;19043;51.012;5.648;2023-03-01T04:59:20;28.38;;;19.77;;
32633;SDS011;19043;51.012;5.648;2023-03-01T05:01:49;28.55;;;20.23;;
32633;SDS011;19043;51.012;5.648;2023-03-01T05:04:14;23.92;;;16.52;;
32633;SDS011;19043;51.012;5.648;2023-03-01T05:06:40;25.77;;;17.92;;
32633;SDS011;19043;51.012;5.648;2023-03-01T05:09:05;24.70;;;17.67;;
32633;SDS011;19043;51.012;5.648;2023-03-01T05:11:30;24.35;;;17.20;;
32633;SDS011;19043;51.012;5.648;2023-03-01T05:14:00;22.20;;;16.95;;
32633;SDS011;19043;51.012;5.648;2023-03-01T05:16:25;21.02;;;14.57;;
32633;SDS011;19043;51.012;5.648;2023-03-01T05:18:51;22.30;;;15.20;;
32633;SDS011;19043;51.012;5.648;2023-03-01T05:21:16;24.45;;;16.52;;
32633;SDS011;19043;51.012;5.648;2023-03-01T05:23:41;19.67;;;15.32;;
32633;SDS011;19043;51.012;5.648;2023-03-01T05:26:07;21.35;;;14.70;;
32633;SDS011;19043;51.012;5.648;2023-03-01T05:28:33;21.40;;;14.57;;
32633;SDS011;19043;51.012;5.648;2023-03-01T05:30:58;22.63;;;16.23;;
32633;SDS011;19043;51.012;5.648;2023-03-01T05:33:24;25.95;;;15.10;;
32633;SDS011;19043;51.012;5.648;2023-03-01T05:35:50;19.85;;;14.40;;
32633;SDS011;19043;51.012;5.648;2023-03-01T05:38:15;20.20;;;14.70;;
32633;SDS011;19043;51.012;5.648;2023-03-01T05:40:42;21.42;;;14.48;;
32633;SDS011;19043;51.012;5.648;2023-03-01T05:43:07;23.83;;;15.82;;
32633;SDS011;19043;51.012;5.648;2023-03-01T05:45:33;20.88;;;15.75;;
32633;SDS011;19043;51.012;5.648;2023-03-01T05:48:00;18.92;;;14.27;;
32633;SDS011;19043;51.012;5.648;2023-03-01T05:50:26;19.83;;;14.65;;
32633;SDS011;19043;51.012;5.648;2023-03-01T05:52:56;21.17;;;14.63;;
32633;SDS011;19043;51.012;5.648;2023-03-01T05:55:22;21.90;;;15.88;;
32633;SDS011;19043;51.012;5.648;2023-03-01T05:57:48;23.70;;;15.30;;
32633;SDS011;19043;51.012;5.648;2023-03-01T06:00:14;21.60;;;14.75;;
32633;SDS011;19043;51.012;5.648;2023-03-01T06:02:39;20.42;;;13.30;;
32633;SDS011;19043;51.012;5.648;2023-03-01T06:05:05;20.02;;;14.23;;
32633;SDS011;19043;51.012;5.648;2023-03-01T06:07:31;20.80;;;14.50;;
32633;SDS011;19043;51.012;5.648;2023-03-01T06:09:56;20.02;;;15.32;;
32633;SDS011;19043;51.012;5.648;2023-03-01T06:12:21;22.73;;;14.88;;
32633;SDS011;19043;51.012;5.648;2023-03-01T06:14:47;24.85;;;15.40;;
32633;SDS011;19043;51.012;5.648;2023-03-01T06:17:12;20.15;;;15.27;;
32633;SDS011;19043;51.012;5.648;2023-03-01T06:19:38;24.42;;;14.55;;
32633;SDS011;19043;51.012;5.648;2023-03-01T06:22:03;19.00;;;15.30;;
32633;SDS011;19043;51.012;5.648;2023-03-01T06:24:28;19.30;;;14.70;;
32633;SDS011;19043;51.012;5.648;2023-03-01T06:26:54;21.50;;;14.70;;
32633;SDS011;19043;51.012;5.648;2023-03-01T06:29:19;21.23;;;15.43;;
32633;SDS011;19043;51.012;5.648;2023-03-01T06:31:44;24.30;;;15.45;;
32633;SDS011;19043;51.012;5.648;2023-03-01T06:34:10;22.25;;;15.82;;
32633;SDS011;19043;51.012;5.648;2023-03-01T06:36:38;19.45;;;14.30;;
32633;SDS011;19043;51.012;5.648;2023-03-01T06:39:03;23.90;;;15.60;;
32633;SDS011;19043;51.012;5.648;2023-03-01T06:41:30;20.55;;;15.05;;
32633;SDS011;19043;51.012;5.648;2023-03-01T06:43:55;21.45;;;15.35;;
32633;SDS011;19043;51.012;5.648;2023-03-01T06:46:20;21.33;;;14.43;;
32633;SDS011;19043;51.012;5.648;2023-03-01T06:48:46;22.63;;;15.65;;
32633;SDS011;19043;51.012;5.648;2023-03-01T06:51:11;21.83;;;16.30;;
32633;SDS011;19043;51.012;5.648;2023-03-01T06:53:37;25.40;;;15.55;;
32633;SDS011;19043;51.012;5.648;2023-03-01T06:56:02;26.60;;;16.13;;
32633;SDS011;19043;51.012;5.648;2023-03-01T06:58:27;26.58;;;15.68;;
32633;SDS011;19043;51.012;5.648;2023-03-01T07:00:53;21.25;;;14.68;;
32633;SDS011;19043;51.012;5.648;2023-03-01T07:03:18;24.17;;;15.45;;
32633;SDS011;19043;51.012;5.648;2023-03-01T07:05:43;27.83;;;16.42;;
32633;SDS011;19043;51.012;5.648;2023-03-01T07:08:09;24.88;;;15.88;;
32633;SDS011;19043;51.012;5.648;2023-03-01T07:10:34;24.55;;;16.10;;
32633;SDS011;19043;51.012;5.648;2023-03-01T07:13:00;18.38;;;14.55;;
32633;SDS011;19043;51.012;5.648;2023-03-01T07:15:25;20.23;;;15.18;;
32633;SDS011;19043;51.012;5.648;2023-03-01T07:17:51;22.45;;;15.23;;
32633;SDS011;19043;51.012;5.648;2023-03-01T07:20:17;29.60;;;16.75;;
32633;SDS011;19043;51.012;5.648;2023-03-01T07:22:42;21.85;;;15.70;;
32633;SDS011;19043;51.012;5.648;2023-03-01T07:25:08;22.67;;;16.13;;
32633;SDS011;19043;51.012;5.648;2023-03-01T07:27:34;27.90;;;16.95;;
32633;SDS011;19043;51.012;5.648;2023-03-01T07:29:59;28.92;;;16.15;;
32633;SDS011;19043;51.012;5.648;2023-03-01T07:32:24;25.20;;;16.10;;
32633;SDS011;19043;51.012;5.648;2023-03-01T07:34:50;23.02;;;15.85;;
32633;SDS011;19043;51.012;5.648;2023-03-01T07:37:16;21.67;;;16.08;;
32633;SDS011;19043;51.012;5.648;2023-03-01T07:39:41;18.95;;;14.75;;
32633;SDS011;19043;51.012;5.648;2023-03-01T07:42:07;20.80;;;15.10;;
32633;SDS011;19043;51.012;5.648;2023-03-01T07:44:32;20.13;;;14.70;;
32633;SDS011;19043;51.012;5.648;2023-03-01T07:46:57;20.55;;;14.95;;
32633;SDS011;19043;51.012;5.648;2023-03-01T07:49:23;28.38;;;15.75;;
32633;SDS011;19043;51.012;5.648;2023-03-01T07:51:48;19.30;;;13.60;;
32633;SDS011;19043;51.012;5.648;2023-03-01T07:54:13;22.48;;;14.88;;
32633;SDS011;19043;51.012;5.648;2023-03-01T07:56:38;19.75;;;13.57;;
32633;SDS011;19043;51.012;5.648;2023-03-01T07:59:05;21.50;;;14.63;;
32633;SDS011;19043;51.012;5.648;2023-03-01T08:01:30;20.25;;;13.70;;
32633;SDS011;19043;51.012;5.648;2023-03-01T08:03:56;21.17;;;14.10;;
32633;SDS011;19043;51.012;5.648;2023-03-01T08:06:21;27.52;;;15.02;;
32633;SDS011;19043;51.012;5.648;2023-03-01T08:08:46;24.77;;;15.82;;
32633;SDS011;19043;51.012;5.648;2023-03-01T08:11:12;20.48;;;14.27;;
32633;SDS011;19043;51.012;5.648;2023-03-01T08:13:38;21.55;;;14.50;;
32633;SDS011;19043;51.012;5.648;2023-03-01T08:16:04;25.25;;;14.77;;
32633;SDS011;19043;51.012;5.648;2023-03-01T08:18:30;23.00;;;15.15;;
32633;SDS011;19043;51.012;5.648;2023-03-01T08:20:55;25.15;;;14.82;;
32633;SDS011;19043;51.012;5.648;2023-03-01T08:23:21;22.13;;;14.68;;
32633;SDS011;19043;51.012;5.648;2023-03-01T08:25:46;25.23;;;14.65;;
32633;SDS011;19043;51.012;5.648;2023-03-01T08:28:11;21.80;;;14.52;;
32633;SDS011;19043;51.012;5.648;2023-03-01T08:30:37;19.70;;;14.00;;
32633;SDS011;19043;51.012;5.648;2023-03-01T08:33:02;24.17;;;14.65;;
32633;SDS011;19043;51.012;5.648;2023-03-01T08:35:27;20.42;;;14.30;;
32633;SDS011;19043;51.012;5.648;2023-03-01T08:37:52;20.02;;;14.27;;
32633;SDS011;19043;51.012;5.648;2023-03-01T08:40:18;20.20;;;13.27;;
32633;SDS011;19043;51.012;5.648;2023-03-01T08:42:43;18.00;;;13.40;;
32633;SDS011;19043;51.012;5.648;2023-03-01T08:45:08;20.05;;;13.45;;
32633;SDS011;19043;51.012;5.648;2023-03-01T08:47:34;20.50;;;13.48;;
32633;SDS011;19043;51.012;5.648;2023-03-01T08:50:00;19.17;;;11.57;;
32633;SDS011;19043;51.012;5.648;2023-03-01T08:52:25;16.52;;;13.25;;
32633;SDS011;19043;51.012;5.648;2023-03-01T08:54:51;24.42;;;14.35;;
32633;SDS011;19043;51.012;5.648;2023-03-01T08:57:16;19.52;;;12.82;;
32633;SDS011;19043;51.012;5.648;2023-03-01T08:59:41;17.17;;;12.93;;
32633;SDS011;19043;51.012;5.648;2023-03-01T09:02:11;20.27;;;12.85;;
32633;SDS011;19043;51.012;5.648;2023-03-01T09:04:37;21.70;;;12.57;;
32633;SDS011;19043;51.012;5.648;2023-03-01T09:07:02;20.35;;;13.52;;
32633;SDS011;19043;51.012;5.648;2023-03-01T09:09:27;18.92;;;12.90;;
32633;SDS011;19043;51.012;5.648;2023-03-01T09:11:53;16.95;;;11.65;;
32633;SDS011;19043;51.012;5.648;2023-03-01T09:14:18;16.42;;;11.73;;
32633;SDS011;19043;51.012;5.648;2023-03-01T09:16:43;21.88;;;12.63;;
32633;SDS011;19043;51.012;5.648;2023-03-01T09:19:10;16.58;;;11.70;;
32633;SDS011;19043;51.012;5.648;2023-03-01T09:21:36;20.98;;;13.25;;
32633;SDS011;19043;51.012;5.648;2023-03-01T09:24:02;18.00;;;11.82;;
32633;SDS011;19043;51.012;5.648;2023-03-01T09:26:27;21.33;;;11.98;;
32633;SDS011;19043;51.012;5.648;2023-03-01T09:28:53;17.00;;;12.60;;
32633;SDS011;19043;51.012;5.648;2023-03-01T09:31:19;18.75;;;12.13;;
32633;SDS011;19043;51.012;5.648;2023-03-01T09:33:48;19.13;;;11.88;;
32633;SDS011;19043;51.012;5.648;2023-03-01T09:36:15;18.23;;;11.90;;
32633;SDS011;19043;51.012;5.648;2023-03-01T09:38:40;17.27;;;11.65;;
32633;SDS011;19043;51.012;5.648;2023-03-01T09:41:09;22.42;;;12.90;;
32633;SDS011;19043;51.012;5.648;2023-03-01T09:46:04;19.10;;;13.00;;
32633;SDS011;19043;51.012;5.648;2023-03-01T09:48:32;18.73;;;12.73;;
32633;SDS011;19043;51.012;5.648;2023-03-01T09:51:00;19.83;;;12.65;;
32633;SDS011;19043;51.012;5.648;2023-03-01T09:53:31;25.10;;;13.00;;
32633;SDS011;19043;51.012;5.648;2023-03-01T09:56:02;20.38;;;12.30;;
32633;SDS011;19043;51.012;5.648;2023-03-01T10:01:02;20.38;;;12.15;;
32633;SDS011;19043;51.012;5.648;2023-03-01T10:03:34;17.08;;;12.48;;
32633;SDS011;19043;51.012;5.648;2023-03-01T10:11:00;18.73;;;12.10;;
32633;SDS011;19043;51.012;5.648;2023-03-01T10:16:11;17.33;;;12.30;;
32633;SDS011;19043;51.012;5.648;2023-03-01T10:18:38;21.40;;;12.38;;
32633;SDS011;19043;51.012;5.648;2023-03-01T10:21:12;16.08;;;12.40;;
32633;SDS011;19043;51.012;5.648;2023-03-01T10:23:38;28.48;;;12.68;;
32633;SDS011;19043;51.012;5.648;2023-03-01T10:28:44;21.73;;;12.15;;
32633;SDS011;19043;51.012;5.648;2023-03-01T10:31:16;15.48;;;11.23;;
32633;SDS011;19043;51.012;5.648;2023-03-01T10:33:43;15.75;;;11.43;;
32633;SDS011;19043;51.012;5.648;2023-03-01T10:36:09;21.20;;;11.50;;
32633;SDS011;19043;51.012;5.648;2023-03-01T10:38:54;21.10;;;11.60;;
32633;SDS011;19043;51.012;5.648;2023-03-01T10:41:20;17.83;;;11.40;;
32633;SDS011;19043;51.012;5.648;2023-03-01T10:46:21;17.30;;;12.38;;
32633;SDS011;19043;51.012;5.648;2023-03-01T10:48:50;14.87;;;10.70;;
32633;SDS011;19043;51.012;5.648;2023-03-01T10:51:30;16.58;;;11.38;;
32633;SDS011;19043;51.012;5.648;2023-03-01T10:53:55;14.57;;;11.00;;
32633;SDS011;19043;51.012;5.648;2023-03-01T10:56:20;18.10;;;11.65;;
32633;SDS011;19043;51.012;5.648;2023-03-01T10:59:04;17.73;;;12.35;;
32633;SDS011;19043;51.012;5.648;2023-03-01T11:01:31;18.50;;;11.50;;
32633;SDS011;19043;51.012;5.648;2023-03-01T11:04:09;17.80;;;11.65;;
32633;SDS011;19043;51.012;5.648;2023-03-01T11:06:39;16.10;;;11.10;;
32633;SDS011;19043;51.012;5.648;2023-03-01T11:09:14;18.25;;;11.60;;
32633;SDS011;19043;51.012;5.648;2023-03-01T11:11:40;17.60;;;10.38;;
32633;SDS011;19043;51.012;5.648;2023-03-01T11:14:15;18.25;;;11.70;;
32633;SDS011;19043;51.012;5.648;2023-03-01T11:16:42;14.25;;;11.18;;
32633;SDS011;19043;51.012;5.648;2023-03-01T11:21:34;16.50;;;11.37;;
32633;SDS011;19043;51.012;5.648;2023-03-01T11:24:00;15.30;;;10.63;;
32633;SDS011;19043;51.012;5.648;2023-03-01T11:26:26;15.85;;;11.35;;
32633;SDS011;19043;51.012;5.648;2023-03-01T11:28:53;17.75;;;10.88;;
32633;SDS011;19043;51.012;5.648;2023-03-01T11:31:19;18.05;;;10.90;;
32633;SDS011;19043;51.012;5.648;2023-03-01T11:33:50;17.08;;;11.60;;
32633;SDS011;19043;51.012;5.648;2023-03-01T11:39:05;14.93;;;11.05;;
32633;SDS011;19043;51.012;5.648;2023-03-01T11:41:35;16.87;;;10.60;;
32633;SDS011;19043;51.012;5.648;2023-03-01T11:44:02;18.58;;;10.43;;
32633;SDS011;19043;51.012;5.648;2023-03-01T11:46:35;20.48;;;10.90;;
32633;SDS011;19043;51.012;5.648;2023-03-01T11:56:55;19.13;;;9.80;;
32633;SDS011;19043;51.012;5.648;2023-03-01T12:04:35;13.38;;;8.93;;
32633;SDS011;19043;51.012;5.648;2023-03-01T12:19:53;11.60;;;8.95;;
32633;SDS011;19043;51.012;5.648;2023-03-01T12:22:30;9.73;;;7.50;;
32633;SDS011;19043;51.012;5.648;2023-03-01T12:38:16;9.30;;;7.87;;
32633;SDS011;19043;51.012;5.648;2023-03-01T12:41:00;16.52;;;8.15;;
32633;SDS011;19043;51.012;5.648;2023-03-01T12:50:46;12.40;;;8.48;;
32633;SDS011;19043;51.012;5.648;2023-03-01T12:56:05;10.63;;;7.68;;
32633;SDS011;19043;51.012;5.648;2023-03-01T12:58:32;13.82;;;8.63;;
32633;SDS011;19043;51.012;5.648;2023-03-01T13:06:38;11.32;;;6.57;;
32633;SDS011;19043;51.012;5.648;2023-03-01T13:11:43;8.82;;;7.15;;
32633;SDS011;19043;51.012;5.648;2023-03-01T13:16:46;10.07;;;7.75;;
32633;SDS011;19043;51.012;5.648;2023-03-01T13:21:43;9.32;;;6.15;;
32633;SDS011;19043;51.012;5.648;2023-03-01T13:34:54;12.38;;;7.65;;
32633;SDS011;19043;51.012;5.648;2023-03-01T13:37:21;8.45;;;7.40;;
32633;SDS011;19043;51.012;5.648;2023-03-01T13:39:46;11.65;;;7.13;;
32633;SDS011;19043;51.012;5.648;2023-03-01T13:42:32;9.35;;;6.88;;
32633;SDS011;19043;51.012;5.648;2023-03-01T13:44:58;11.90;;;7.63;;
32633;SDS011;19043;51.012;5.648;2023-03-01T13:47:23;13.13;;;7.63;;
32633;SDS011;19043;51.012;5.648;2023-03-01T13:49:59;9.75;;;6.70;;
32633;SDS011;19043;51.012;5.648;2023-03-01T13:52:43;8.23;;;6.90;;
32633;SDS011;19043;51.012;5.648;2023-03-01T13:58:18;10.85;;;7.15;;
32633;SDS011;19043;51.012;5.648;2023-03-01T14:00:44;10.85;;;7.03;;
32633;SDS011;19043;51.012;5.648;2023-03-01T14:03:11;10.40;;;6.53;;
32633;SDS011;19043;51.012;5.648;2023-03-01T14:05:37;11.13;;;6.43;;
32633;SDS011;19043;51.012;5.648;2023-03-01T14:08:03;12.00;;;7.65;;
32633;SDS011;19043;51.012;5.648;2023-03-01T14:10:31;12.45;;;7.30;;
32633;SDS011;19043;51.012;5.648;2023-03-01T14:15:35;10.90;;;5.57;;
32633;SDS011;19043;51.012;5.648;2023-03-01T14:21:07;7.68;;;6.28;;
32633;SDS011;19043;51.012;5.648;2023-03-01T14:23:33;11.68;;;6.50;;
32633;SDS011;19043;51.012;5.648;2023-03-01T14:26:00;13.07;;;5.93;;
32633;SDS011;19043;51.012;5.648;2023-03-01T14:28:29;7.80;;;5.70;;
32633;SDS011;19043;51.012;5.648;2023-03-01T14:30:59;8.50;;;6.72;;
32633;SDS011;19043;51.012;5.648;2023-03-01T14:33:31;10.68;;;6.65;;
32633;SDS011;19043;51.012;5.648;2023-03-01T14:38:28;7.47;;;6.47;;
32633;SDS011;19043;51.012;5.648;2023-03-01T14:40:55;9.73;;;6.60;;
32633;SDS011;19043;51.012;5.648;2023-03-01T14:43:22;9.38;;;6.57;;
32633;SDS011;19043;51.012;5.648;2023-03-01T14:45:49;6.95;;;5.63;;
32633;SDS011;19043;51.012;5.648;2023-03-01T14:48:15;7.95;;;5.88;;
32633;SDS011;19043;51.012;5.648;2023-03-01T14:50:41;9.02;;;5.78;;
32633;SDS011;19043;51.012;5.648;2023-03-01T14:53:07;7.57;;;5.82;;
32633;SDS011;19043;51.012;5.648;2023-03-01T14:55:41;8.43;;;6.00;;
32633;SDS011;19043;51.012;5.648;2023-03-01T14:58:14;8.65;;;5.68;;
32633;SDS011;19043;51.012;5.648;2023-03-01T15:00:40;8.00;;;5.85;;
32633;SDS011;19043;51.012;5.648;2023-03-01T15:03:12;12.13;;;6.20;;
32633;SDS011;19043;51.012;5.648;2023-03-01T15:05:39;7.70;;;5.25;;
32633;SDS011;19043;51.012;5.648;2023-03-01T15:08:05;9.45;;;5.38;;
32633;SDS011;19043;51.012;5.648;2023-03-01T15:10:32;9.25;;;5.70;;
32633;SDS011;19043;51.012;5.648;2023-03-01T15:13:19;11.35;;;5.95;;
32633;SDS011;19043;51.012;5.648;2023-03-01T15:15:45;12.00;;;5.40;;
32633;SDS011;19043;51.012;5.648;2023-03-01T15:18:15;9.95;;;6.25;;
32633;SDS011;19043;51.012;5.648;2023-03-01T15:20:41;11.27;;;6.45;;
32633;SDS011;19043;51.012;5.648;2023-03-01T15:23:12;12.18;;;6.30;;
32633;SDS011;19043;51.012;5.648;2023-03-01T15:25:43;8.18;;;5.85;;
32633;SDS011;19043;51.012;5.648;2023-03-01T15:28:12;7.28;;;5.53;;
32633;SDS011;19043;51.012;5.648;2023-03-01T15:30:42;8.07;;;5.22;;
32633;SDS011;19043;51.012;5.648;2023-03-01T15:33:18;15.57;;;5.28;;
32633;SDS011;19043;51.012;5.648;2023-03-01T15:35:47;9.70;;;5.80;;
32633;SDS011;19043;51.012;5.648;2023-03-01T15:38:23;10.65;;;6.18;;
32633;SDS011;19043;51.012;5.648;2023-03-01T15:40:50;7.63;;;5.70;;
32633;SDS011;19043;51.012;5.648;2023-03-01T15:46:00;9.20;;;5.22;;
32633;SDS011;19043;51.012;5.648;2023-03-01T15:48:26;7.25;;;5.07;;
32633;SDS011;19043;51.012;5.648;2023-03-01T15:50:55;8.82;;;5.38;;
32633;SDS011;19043;51.012;5.648;2023-03-01T15:53:21;8.93;;;5.55;;
32633;SDS011;19043;51.012;5.648;2023-03-01T15:55:47;16.00;;;5.80;;
32633;SDS011;19043;51.012;5.648;2023-03-01T15:58:21;9.20;;;5.80;;
32633;SDS011;19043;51.012;5.648;2023-03-01T16:00:47;7.50;;;5.50;;
32633;SDS011;19043;51.012;5.648;2023-03-01T16:03:13;11.43;;;5.47;;
32633;SDS011;19043;51.012;5.648;2023-03-01T16:05:39;9.13;;;6.10;;
32633;SDS011;19043;51.012;5.648;2023-03-01T16:08:05;10.18;;;5.47;;
32633;SDS011;19043;51.012;5.648;2023-03-01T16:10:33;9.43;;;5.57;;
32633;SDS011;19043;51.012;5.648;2023-03-01T16:12:59;11.07;;;6.60;;
32633;SDS011;19043;51.012;5.648;2023-03-01T16:15:28;10.25;;;5.80;;
32633;SDS011;19043;51.012;5.648;2023-03-01T16:17:54;7.95;;;5.53;;
32633;SDS011;19043;51.012;5.648;2023-03-01T16:20:19;10.77;;;5.78;;
32633;SDS011;19043;51.012;5.648;2023-03-01T16:22:44;11.50;;;5.82;;
32633;SDS011;19043;51.012;5.648;2023-03-01T16:25:14;9.27;;;5.75;;
32633;SDS011;19043;51.012;5.648;2023-03-01T16:27:41;9.40;;;6.43;;
32633;SDS011;19043;51.012;5.648;2023-03-01T16:30:07;9.55;;;5.97;;